Monday, December 17, 2018, 10:56 AM GMT
Back to Local

CWSD, Summerside Automatic Weather Reporting System

Location: , , Canada Lat: 46.433
Local Time: 10:56 AM GMT (10:56 GMT) Lon: -63.85
Time Zone: GMT Elev: 78 ft

Show me the last for .
Show Decoded

2018-12-17 10:00 METAR CWSD 171000Z AUTO 12009KT M02/M04 RMK AO1 SOG 07 8035 SLP114 T10161039 =
2018-12-17 08:00 METAR CWSD 170800Z AUTO 13005KT M02/M05 RMK AO1 SOG 07 7036 SLP137 T10241046 =
2018-12-17 07:00 METAR CWSD 170700Z AUTO 12008KT M02/M05 RMK AO1 SOG 07 6038 SLP149 T10221046 =
2018-12-17 06:00 METAR CWSD 170600Z AUTO 12009KT M03/M05 RMK AO1 SOG 07 8034 SLP161 T10251049 =
2018-12-17 05:00 METAR CWSD 170500Z AUTO 12010KT M02/M05 RMK AO1 SOG 07 8029 SLP173 T10231048 =
2018-12-17 04:00 METAR CWSD 170400Z AUTO 13008KT M02/M05 RMK AO1 SOG 07 7023 SLP187 T10221048 =
2018-12-17 03:00 METAR CWSD 170300Z AUTO 12009KT M02/M05 RMK AO1 SOG 07 8019 SLP195 T10201046 =
2018-12-17 02:00 METAR CWSD 170200Z AUTO 11008KT M03/M04 RMK AO1 SOG 07 8014 SLP202 T10261035 =
2018-12-17 01:00 METAR CWSD 170100Z AUTO 00000KT M04/M05 RMK AO1 SOG 07 6011 SLP210 T10401054 =
2018-12-17 00:00 METAR CWSD 170000Z AUTO 00000KT M03/M04 RMK AO1 SOG 07 6010 SLP214 T10291043 =
2018-12-16 23:00 METAR CWSD 162300Z AUTO 07005KT M03/M04 RMK AO1 SOG 07 8003 SLP217 T10331043 =
2018-12-16 22:00 METAR CWSD 162200Z AUTO 07004KT M03/M05 RMK AO1 SOG 07 0001 SLP222 T10321051 =
2018-12-16 21:00 METAR CWSD 162100Z AUTO 00000KT M01/M04 RMK AO1 SOG 07 1010 SLP224 T10131037 =
2018-12-16 20:00 METAR CWSD 162000Z AUTO 08001KT M00/M04 RMK AO1 SOG 07 3002 SLP219 T10031041 =
2018-12-16 19:00 METAR CWSD 161900Z AUTO 03003KT M00/M04 RMK AO1 SOG 07 5003 SLP220 T10031039 =
2018-12-16 18:00 METAR CWSD 161800Z AUTO 04007KT 01/M04 RMK AO1 SOG 07 6017 SLP214 T00081038 =
2018-12-16 17:00 METAR CWSD 161700Z AUTO 03007KT 01/M04 RMK AO1 SOG 07 8017 SLP217 T00111038 =
2018-12-16 16:00 METAR CWSD 161600Z AUTO 01007KT 01/M03 RMK AO1 SOG 07 8009 SLP223 T00141034 =
2018-12-16 15:00 METAR CWSD 161500Z AUTO 34006KT 01/M04 RMK AO1 SOG 07 0001 SLP231 T00071037 =
2018-12-16 14:00 METAR CWSD 161400Z AUTO 33006KT M00/M04 RMK AO1 SOG 07 3004 SLP234 T10031037 =
2018-12-16 13:00 METAR CWSD 161300Z AUTO 31006KT M02/M05 RMK AO1 SOG 07 1006 SLP232 T10231046 =
2018-12-16 12:00 METAR CWSD 161200Z AUTO 28005KT M03/M05 RMK AO1 SOG 07 1009 SLP230 T10311047 =
2018-12-16 11:00 METAR CWSD 161100Z AUTO 24003KT M04/M05 RMK AO1 SOG 07 2013 SLP230 T10361053 =

Support USWX by starting your Amazon purchase here.